createdAt,value
2022-10-14T00:01:18.422Z,15.83
2022-10-14T00:03:45.763Z,15.60
2022-10-14T00:06:18.660Z,14.77
2022-10-14T00:08:47.489Z,13.40
2022-10-14T00:11:25.518Z,12.87
2022-10-14T00:13:58.278Z,13.03
2022-10-14T00:16:28.231Z,12.33
2022-10-14T00:18:55.300Z,12.67
2022-10-14T00:21:22.319Z,13.27
2022-10-14T00:23:49.508Z,12.93
2022-10-14T00:26:28.334Z,13.30
2022-10-14T00:28:56.507Z,13.60
2022-10-14T00:31:26.482Z,13.50
2022-10-14T00:33:53.417Z,13.83
2022-10-14T00:36:21.851Z,14.00
2022-10-14T00:38:49.470Z,13.63
2022-10-14T00:41:21.162Z,14.83
2022-10-14T00:43:57.399Z,14.67
2022-10-14T00:46:26.621Z,14.13
2022-10-14T00:49:01.742Z,13.77
2022-10-14T00:51:29.031Z,14.30
2022-10-14T00:53:56.092Z,14.47
2022-10-14T00:56:27.248Z,14.27
2022-10-14T00:58:55.096Z,14.10
2022-10-14T01:01:22.139Z,13.53
2022-10-14T01:03:49.216Z,12.77
2022-10-14T01:06:35.585Z,13.67
2022-10-14T01:09:05.618Z,13.20
2022-10-14T01:12:23.469Z,13.30
2022-10-14T01:15:00.009Z,12.17
2022-10-14T01:17:36.219Z,12.23
2022-10-14T01:20:47.147Z,11.93
2022-10-14T01:23:33.851Z,11.93
2022-10-14T01:26:06.777Z,12.67
2022-10-14T01:28:57.835Z,12.60
2022-10-14T01:31:32.633Z,12.73
2022-10-14T01:34:05.168Z,12.63
2022-10-14T01:36:56.016Z,12.93
2022-10-14T01:39:31.630Z,12.17
2022-10-14T01:42:12.790Z,13.20
2022-10-14T01:44:46.829Z,13.43
2022-10-14T01:47:17.216Z,13.27
2022-10-14T01:49:53.842Z,13.30
2022-10-14T01:52:27.488Z,13.30
2022-10-14T01:54:59.833Z,13.07
2022-10-14T01:57:29.499Z,12.67
2022-10-14T01:59:57.855Z,13.07
2022-10-14T02:02:25.320Z,11.97
2022-10-14T02:04:52.307Z,11.97
2022-10-14T02:07:37.023Z,12.77
2022-10-14T02:10:12.919Z,12.13
2022-10-14T02:13:03.062Z,12.20
2022-10-14T02:15:47.385Z,11.57
2022-10-14T02:18:46.860Z,11.73
2022-10-14T02:21:26.894Z,11.27
2022-10-14T02:24:28.648Z,12.07
2022-10-14T02:27:00.174Z,11.20
2022-10-14T02:29:29.606Z,11.43
2022-10-14T02:31:59.230Z,11.27
2022-10-14T02:34:27.390Z,10.97
2022-10-14T02:36:55.658Z,10.53
2022-10-14T02:39:32.852Z,10.37
2022-10-14T02:41:59.745Z,10.67
2022-10-14T02:44:26.603Z,10.70
2022-10-14T02:46:56.254Z,10.33
2022-10-14T02:49:23.689Z,10.80
2022-10-14T02:51:50.578Z,9.83
2022-10-14T02:54:17.439Z,9.10
2022-10-14T02:56:44.431Z,8.67
2022-10-14T02:59:11.310Z,9.13
2022-10-14T03:01:39.977Z,9.57
2022-10-14T03:04:09.354Z,9.57
2022-10-14T03:06:36.890Z,9.53
2022-10-14T03:09:03.869Z,9.23
2022-10-14T03:11:35.014Z,9.00
2022-10-14T03:14:05.879Z,8.87
2022-10-14T03:16:32.825Z,8.83
2022-10-14T03:18:59.927Z,8.37
2022-10-14T03:21:40.423Z,8.90
2022-10-14T03:24:13.431Z,8.80
2022-10-14T03:26:41.513Z,8.53
2022-10-14T03:29:08.536Z,8.90
2022-10-14T03:31:59.727Z,9.00
2022-10-14T03:34:33.217Z,9.53
2022-10-14T03:37:07.804Z,8.90
2022-10-14T03:39:42.608Z,8.77
2022-10-14T03:42:09.539Z,8.37
2022-10-14T03:44:42.833Z,8.37
2022-10-14T03:47:23.008Z,7.63
2022-10-14T03:49:50.049Z,7.73
2022-10-14T03:52:25.959Z,7.40
2022-10-14T03:55:18.876Z,7.37
2022-10-14T03:57:48.036Z,7.00
2022-10-14T04:00:16.675Z,7.30
2022-10-14T04:02:47.914Z,6.77
2022-10-14T04:05:32.488Z,7.33
2022-10-14T04:08:01.915Z,6.97
2022-10-14T04:10:29.035Z,6.93
2022-10-14T04:12:56.949Z,7.20
2022-10-14T04:15:31.197Z,7.13
2022-10-14T04:18:08.411Z,6.70
2022-10-14T04:20:38.213Z,7.30
2022-10-14T04:23:06.189Z,7.43
2022-10-14T04:25:36.956Z,7.47
2022-10-14T04:28:03.862Z,6.90
2022-10-14T04:30:45.380Z,7.80
2022-10-14T04:33:17.950Z,7.83
2022-10-14T04:35:47.211Z,7.40
2022-10-14T04:38:21.555Z,8.10
2022-10-14T04:40:54.733Z,8.00
2022-10-14T04:43:21.660Z,8.87
2022-10-14T04:45:49.796Z,8.80
2022-10-14T04:48:23.872Z,8.07
2022-10-14T04:50:52.087Z,7.87
2022-10-14T04:53:35.071Z,7.93
2022-10-14T04:56:15.181Z,7.50
2022-10-14T04:58:53.018Z,7.30
2022-10-14T05:01:22.027Z,6.97
2022-10-14T05:03:48.978Z,7.87
2022-10-14T05:06:17.872Z,7.40
2022-10-14T05:08:45.804Z,7.60
2022-10-14T05:11:14.347Z,7.00
2022-10-14T05:13:47.600Z,6.03
2022-10-14T05:16:16.122Z,6.83
2022-10-14T05:18:43.678Z,6.97
2022-10-14T05:21:12.887Z,6.93
2022-10-14T05:23:58.492Z,7.37
2022-10-14T05:26:27.905Z,6.73
2022-10-14T05:28:57.108Z,6.90
2022-10-14T05:31:24.167Z,6.67
2022-10-14T05:34:00.026Z,6.50
2022-10-14T05:36:26.920Z,6.77
2022-10-14T05:38:56.399Z,6.73
2022-10-14T05:41:23.843Z,6.53
2022-10-14T05:43:50.929Z,6.67
2022-10-14T05:46:18.393Z,7.27
2022-10-14T05:48:51.050Z,6.77
2022-10-14T05:51:21.189Z,6.97
2022-10-14T05:53:52.298Z,7.23
2022-10-14T05:56:19.703Z,6.30
2022-10-14T05:58:52.840Z,6.90
2022-10-14T06:01:20.942Z,6.60
2022-10-14T06:03:51.822Z,6.80
2022-10-14T06:06:19.495Z,6.60
2022-10-14T06:08:46.356Z,6.23
2022-10-14T06:11:13.665Z,6.23
2022-10-14T06:13:40.651Z,6.03
2022-10-14T06:16:10.193Z,6.40
2022-10-14T06:18:37.819Z,6.40
2022-10-14T06:21:05.664Z,6.10
2022-10-14T06:23:34.416Z,6.13
2022-10-14T06:26:05.046Z,5.57
2022-10-14T06:28:32.297Z,5.43
2022-10-14T06:30:59.265Z,5.73
2022-10-14T06:33:28.622Z,6.07
2022-10-14T06:35:56.291Z,6.53
2022-10-14T06:38:24.061Z,6.90
2022-10-14T06:40:52.422Z,7.10
2022-10-14T06:43:20.387Z,7.40
2022-10-14T06:45:47.746Z,7.20
2022-10-14T06:48:15.266Z,6.93
2022-10-14T06:50:42.515Z,7.67
2022-10-14T06:53:09.426Z,7.27
2022-10-14T06:55:36.302Z,7.10
2022-10-14T06:58:03.225Z,8.00
2022-10-14T07:00:30.190Z,7.77
2022-10-14T07:02:59.471Z,7.03
2022-10-14T07:05:27.135Z,6.67
2022-10-14T07:07:54.157Z,6.70
2022-10-14T07:10:21.148Z,7.63
2022-10-14T07:12:48.179Z,7.53
2022-10-14T07:15:15.133Z,8.50
2022-10-14T07:17:42.049Z,11.40
2022-10-14T07:20:09.436Z,11.77
2022-10-14T07:22:38.905Z,11.90
2022-10-14T07:25:06.844Z,10.90
2022-10-14T07:27:33.776Z,10.53
2022-10-14T07:30:01.798Z,11.87
2022-10-14T07:32:28.767Z,11.07
2022-10-14T07:34:55.699Z,11.37
2022-10-14T07:37:23.127Z,11.03
2022-10-14T07:39:50.262Z,11.87
2022-10-14T07:42:17.227Z,12.07
2022-10-14T07:44:45.870Z,12.27
2022-10-14T07:47:13.281Z,12.03
2022-10-14T07:49:40.446Z,12.70
2022-10-14T07:52:07.315Z,13.10
2022-10-14T07:54:34.155Z,12.67
2022-10-14T07:57:01.215Z,12.60
2022-10-14T07:59:28.266Z,13.13
2022-10-14T08:01:56.823Z,12.17
2022-10-14T08:04:24.372Z,13.37
2022-10-14T08:06:52.032Z,14.10
2022-10-14T08:09:19.230Z,13.80
2022-10-14T08:11:46.646Z,13.67
2022-10-14T08:14:14.207Z,13.67
2022-10-14T08:16:41.270Z,13.93
2022-10-14T08:19:14.673Z,14.70
2022-10-14T08:21:43.280Z,13.13
2022-10-14T08:24:11.343Z,12.40
2022-10-14T08:26:40.341Z,12.87
2022-10-14T08:29:10.684Z,12.73
2022-10-14T08:31:38.104Z,12.23
2022-10-14T08:34:05.192Z,11.70
2022-10-14T08:36:32.415Z,11.03
2022-10-14T08:38:59.651Z,11.77
2022-10-14T08:41:35.674Z,11.03
2022-10-14T08:44:23.132Z,11.20
2022-10-14T08:46:59.617Z,10.40
2022-10-14T08:49:32.991Z,10.47
2022-10-14T08:52:08.838Z,10.03
2022-10-14T08:54:40.101Z,9.83
2022-10-14T08:57:16.646Z,9.50
2022-10-14T08:59:44.022Z,9.10
2022-10-14T09:02:29.625Z,9.87
2022-10-14T09:04:58.971Z,8.57
2022-10-14T09:07:26.308Z,8.67
2022-10-14T09:10:05.861Z,8.37
2022-10-14T09:12:35.737Z,8.43
2022-10-14T09:15:16.086Z,9.17
2022-10-14T09:18:17.875Z,8.83
2022-10-14T09:20:46.667Z,8.80
2022-10-14T09:23:25.324Z,8.80
2022-10-14T09:26:05.035Z,8.23
2022-10-14T09:28:39.007Z,9.17
2022-10-14T09:31:09.845Z,9.17
2022-10-14T09:33:42.390Z,8.60
2022-10-14T09:36:15.629Z,8.53
2022-10-14T09:38:42.715Z,8.07
2022-10-14T09:41:14.735Z,8.40
2022-10-14T09:44:21.215Z,9.00
2022-10-14T09:47:02.549Z,8.73
2022-10-14T09:49:32.833Z,7.90
2022-10-14T09:52:02.329Z,7.80
2022-10-14T09:54:31.907Z,8.43
2022-10-14T09:57:05.948Z,7.57
2022-10-14T09:59:33.411Z,7.43
2022-10-14T10:02:04.014Z,7.07
2022-10-14T10:04:35.621Z,7.03
2022-10-14T10:07:06.875Z,6.90
2022-10-14T10:09:34.553Z,6.70
2022-10-14T10:12:21.340Z,6.40
2022-10-14T10:15:00.263Z,6.37
2022-10-14T10:17:29.579Z,6.60
2022-10-14T10:20:19.524Z,5.93
2022-10-14T10:22:46.748Z,6.17
2022-10-14T10:25:14.002Z,6.30
2022-10-14T10:27:46.130Z,6.13
2022-10-14T10:30:20.326Z,5.40
2022-10-14T10:33:06.083Z,6.00
2022-10-14T10:35:36.935Z,5.37
2022-10-14T10:38:21.908Z,5.90
2022-10-14T10:41:06.964Z,5.17
2022-10-14T10:43:33.843Z,5.47
2022-10-14T10:46:20.610Z,5.40
2022-10-14T10:49:05.406Z,5.00
2022-10-14T10:51:58.993Z,4.97
2022-10-14T10:54:47.617Z,5.10
2022-10-14T10:57:57.036Z,5.10
2022-10-14T11:03:20.268Z,5.07
2022-10-14T11:06:15.565Z,5.10
2022-10-14T11:09:21.997Z,4.90
2022-10-14T11:12:15.010Z,5.43
2022-10-14T11:14:59.447Z,5.40
2022-10-14T11:17:42.564Z,6.00
2022-10-14T11:20:19.806Z,5.60
2022-10-14T11:22:58.593Z,6.40
2022-10-14T11:25:30.501Z,5.70
2022-10-14T11:28:22.106Z,5.97
2022-10-14T11:31:27.792Z,6.60
2022-10-14T11:34:13.414Z,6.10
2022-10-14T11:36:51.367Z,6.47
2022-10-14T11:39:57.453Z,5.67
2022-10-14T11:42:39.511Z,5.97
2022-10-14T11:45:21.152Z,5.43
2022-10-14T11:48:04.396Z,5.73
2022-10-14T11:50:39.579Z,5.10
2022-10-14T11:53:18.789Z,5.50
2022-10-14T11:55:55.659Z,4.73
2022-10-14T11:58:27.044Z,4.90
2022-10-14T12:01:11.969Z,4.67
2022-10-14T12:04:03.702Z,4.93
2022-10-14T12:06:51.867Z,4.27
2022-10-14T12:12:09.175Z,5.03
2022-10-14T12:15:00.872Z,4.80
2022-10-14T12:17:37.719Z,4.50
2022-10-14T12:20:34.204Z,4.63
2022-10-14T12:23:03.574Z,4.20
2022-10-14T12:25:38.927Z,4.43
2022-10-14T12:28:06.446Z,3.90
2022-10-14T12:30:41.884Z,4.53
2022-10-14T12:33:10.327Z,4.30
2022-10-14T12:35:59.957Z,4.70
2022-10-14T12:38:31.408Z,4.13
2022-10-14T12:41:33.606Z,4.10
2022-10-14T12:44:05.489Z,4.23
2022-10-14T12:46:32.333Z,4.87
2022-10-14T12:49:00.458Z,4.50
2022-10-14T12:51:27.566Z,4.80
2022-10-14T12:54:04.948Z,4.97
2022-10-14T12:56:42.920Z,4.90
2022-10-14T12:59:22.582Z,5.10
2022-10-14T13:01:56.420Z,4.57
2022-10-14T13:04:28.971Z,4.30
2022-10-14T13:07:38.934Z,4.23
2022-10-14T13:10:43.140Z,3.87
2022-10-14T13:13:47.944Z,4.07
2022-10-14T13:16:23.956Z,4.90
2022-10-14T13:19:00.599Z,4.80
2022-10-14T13:21:36.669Z,4.80
2022-10-14T13:24:28.785Z,4.63
2022-10-14T13:27:22.673Z,4.97
2022-10-14T13:30:19.375Z,4.80
2022-10-14T13:32:56.099Z,4.80
2022-10-14T13:35:42.588Z,4.67
2022-10-14T13:38:18.902Z,4.50
2022-10-14T13:40:56.674Z,3.90
2022-10-14T13:43:53.093Z,3.60
2022-10-14T13:46:26.334Z,3.73
2022-10-14T13:48:58.087Z,3.60
2022-10-14T13:51:41.846Z,3.77
2022-10-14T13:54:20.741Z,4.03
2022-10-14T13:57:12.631Z,3.30
2022-10-14T14:00:27.774Z,3.43
2022-10-14T14:02:40.561Z,3.80
2022-10-14T14:05:15.839Z,3.90
2022-10-14T14:10:31.302Z,4.07
2022-10-14T14:13:03.643Z,3.80
2022-10-14T14:15:30.602Z,3.63
2022-10-14T14:17:57.504Z,4.57
2022-10-14T14:20:28.788Z,3.67
2022-10-14T14:22:58.727Z,4.30
2022-10-14T14:25:46.460Z,4.17
2022-10-14T14:28:18.761Z,4.13
2022-10-14T14:30:55.353Z,3.70
2022-10-14T14:33:34.419Z,4.00
2022-10-14T14:36:04.571Z,4.00
2022-10-14T14:38:35.450Z,4.17
2022-10-14T14:41:23.751Z,3.97
2022-10-14T14:44:13.699Z,4.23
2022-10-14T14:46:42.183Z,4.00
2022-10-14T14:49:15.517Z,4.13
2022-10-14T14:51:43.329Z,3.37
2022-10-14T14:54:19.143Z,3.80
2022-10-14T14:56:59.866Z,3.73
2022-10-14T14:59:36.653Z,3.63
2022-10-14T15:02:12.817Z,3.83
2022-10-14T15:04:42.719Z,3.77
2022-10-14T15:07:20.994Z,3.50
2022-10-14T15:09:52.347Z,3.40
2022-10-14T15:12:21.331Z,3.33
2022-10-14T15:14:50.473Z,3.80
2022-10-14T15:17:24.725Z,3.60
2022-10-14T15:19:52.334Z,3.37
2022-10-14T15:22:24.084Z,3.33
2022-10-14T15:25:08.871Z,3.43
2022-10-14T15:27:44.253Z,3.03
2022-10-14T15:30:22.758Z,3.10
2022-10-14T15:32:51.981Z,3.20
2022-10-14T15:35:20.999Z,3.13
2022-10-14T15:37:49.567Z,3.33
2022-10-14T15:40:23.689Z,3.30
2022-10-14T15:42:50.799Z,3.60
2022-10-14T15:45:18.911Z,3.43
2022-10-14T15:47:46.771Z,4.27
2022-10-14T15:50:18.596Z,4.13
2022-10-14T15:52:53.474Z,4.47
2022-10-14T15:55:35.237Z,4.43
2022-10-14T15:58:02.531Z,4.30
2022-10-14T16:00:29.447Z,4.17
2022-10-14T16:02:58.616Z,4.33
2022-10-14T16:05:28.998Z,3.93
2022-10-14T16:07:57.448Z,4.37
2022-10-14T16:10:28.132Z,4.60
2022-10-14T16:12:57.731Z,4.80
2022-10-14T16:15:47.378Z,5.23
2022-10-14T16:18:18.257Z,4.30
2022-10-14T16:20:45.970Z,4.50
2022-10-14T16:23:20.589Z,4.30
2022-10-14T16:25:50.568Z,4.30
2022-10-14T16:28:21.721Z,4.30
2022-10-14T16:30:50.182Z,4.13
2022-10-14T16:33:18.729Z,3.93
2022-10-14T16:35:50.775Z,4.20
2022-10-14T16:38:17.665Z,4.57
2022-10-14T16:40:44.602Z,4.20
2022-10-14T16:43:13.125Z,3.90
2022-10-14T16:45:39.965Z,3.87
2022-10-14T16:48:08.810Z,4.30
2022-10-14T16:50:35.672Z,5.30
2022-10-14T16:53:20.832Z,5.10
2022-10-14T16:55:47.675Z,5.70
2022-10-14T16:58:14.543Z,7.03
2022-10-14T17:00:42.186Z,6.83
2022-10-14T17:03:11.248Z,7.27
2022-10-14T17:05:38.063Z,7.63
2022-10-14T17:08:07.303Z,7.53
2022-10-14T17:10:34.179Z,7.40
2022-10-14T17:13:02.044Z,6.87
2022-10-14T17:15:30.314Z,7.00
2022-10-14T17:17:57.175Z,6.40
2022-10-14T17:20:24.026Z,7.67
2022-10-14T17:22:50.980Z,8.70
2022-10-14T17:25:17.915Z,8.77
2022-10-14T17:27:45.074Z,8.00
2022-10-14T17:30:12.449Z,8.10
2022-10-14T17:32:39.265Z,6.90
2022-10-14T17:35:07.578Z,7.27
2022-10-14T17:37:36.062Z,8.67
2022-10-14T17:40:03.780Z,8.83
2022-10-14T17:42:31.060Z,5.77
2022-10-14T17:44:58.089Z,5.00
2022-10-14T17:47:25.599Z,4.70
2022-10-14T17:49:52.628Z,4.40
2022-10-14T17:52:19.629Z,3.97
2022-10-14T17:54:46.460Z,4.10
2022-10-14T17:57:13.785Z,4.43
2022-10-14T17:59:40.606Z,3.20
2022-10-14T18:02:09.904Z,3.00
2022-10-14T18:04:38.438Z,3.37
2022-10-14T18:07:05.472Z,3.63
2022-10-14T18:09:33.956Z,4.17
2022-10-14T18:12:08.701Z,3.97
2022-10-14T18:14:38.184Z,4.00
2022-10-14T18:17:05.270Z,4.77
2022-10-14T18:19:32.864Z,5.47
2022-10-14T18:22:00.460Z,5.90
2022-10-14T18:24:27.661Z,4.80
2022-10-14T18:26:54.626Z,4.73
2022-10-14T18:29:21.526Z,4.83
2022-10-14T18:34:18.474Z,4.13
2022-10-14T18:36:45.571Z,4.00
2022-10-14T18:39:12.657Z,4.07
2022-10-14T18:41:39.927Z,3.70
2022-10-14T18:44:07.443Z,3.93
2022-10-14T18:46:36.670Z,2.90
2022-10-14T18:49:05.588Z,2.73
2022-10-14T18:51:36.167Z,2.40
2022-10-14T18:54:08.538Z,2.13
2022-10-14T18:56:40.197Z,2.40
2022-10-14T18:59:10.811Z,2.40
2022-10-14T19:01:39.219Z,2.47
2022-10-14T19:04:08.499Z,2.27
2022-10-14T19:06:35.821Z,2.37
2022-10-14T19:09:03.388Z,2.37
2022-10-14T19:11:31.437Z,2.90
2022-10-14T19:14:00.516Z,2.83
2022-10-14T19:16:30.639Z,2.30
2022-10-14T19:19:04.487Z,2.30
2022-10-14T19:21:32.186Z,2.10
2022-10-14T19:24:01.565Z,2.30
2022-10-14T19:26:33.181Z,2.07
2022-10-14T19:29:01.708Z,2.30
2022-10-14T19:31:31.193Z,2.40
2022-10-14T19:34:00.824Z,2.17
2022-10-14T19:36:28.137Z,2.60
2022-10-14T19:39:00.106Z,3.23
2022-10-14T19:41:28.840Z,2.80
2022-10-14T19:43:57.554Z,2.77
2022-10-14T19:46:27.491Z,2.60
2022-10-14T19:48:59.374Z,2.70
2022-10-14T19:51:27.273Z,2.33
2022-10-14T19:53:55.364Z,2.70
2022-10-14T19:56:22.944Z,3.10
2022-10-14T19:58:53.024Z,3.67
2022-10-14T20:01:23.458Z,3.93
2022-10-14T20:03:51.304Z,3.20
2022-10-14T20:06:18.667Z,2.53
2022-10-14T20:08:46.105Z,2.13
2022-10-14T20:11:16.447Z,2.10
2022-10-14T20:13:46.847Z,1.90
2022-10-14T20:16:14.148Z,1.80
2022-10-14T20:18:41.796Z,2.10
2022-10-14T20:21:11.671Z,2.00
2022-10-14T20:23:39.571Z,2.30
2022-10-14T20:26:12.444Z,1.90
2022-10-14T20:28:41.529Z,2.13
2022-10-14T20:31:11.437Z,2.30
2022-10-14T20:33:38.852Z,2.23
2022-10-14T20:36:17.664Z,2.40
2022-10-14T20:38:44.908Z,2.60
2022-10-14T20:41:16.311Z,2.43
2022-10-14T20:43:44.816Z,2.57
2022-10-14T20:46:12.192Z,2.33
2022-10-14T20:48:39.367Z,2.30
2022-10-14T20:51:08.146Z,2.30
2022-10-14T20:53:35.449Z,2.20
2022-10-14T20:56:04.789Z,2.00
2022-10-14T20:58:32.512Z,2.00
2022-10-14T21:01:11.189Z,2.10
2022-10-14T21:03:38.923Z,2.00
2022-10-14T21:06:07.964Z,2.40
2022-10-14T21:08:35.657Z,2.63
2022-10-14T21:11:08.030Z,2.27
2022-10-14T21:13:37.452Z,2.70
2022-10-14T21:16:35.292Z,3.00
2022-10-14T21:19:04.999Z,3.07
2022-10-14T21:21:41.368Z,3.13
2022-10-14T21:24:11.928Z,3.17
2022-10-14T21:26:38.829Z,3.33
2022-10-14T21:29:05.782Z,3.60
2022-10-14T21:31:32.714Z,3.63
2022-10-14T21:34:05.367Z,3.40
2022-10-14T21:36:34.659Z,3.30
2022-10-14T21:39:05.872Z,3.30
2022-10-14T21:41:32.753Z,3.47
2022-10-14T21:43:59.643Z,3.50
2022-10-14T21:46:27.536Z,3.47
2022-10-14T21:48:57.174Z,3.43
2022-10-14T21:51:26.846Z,3.37
2022-10-14T21:53:54.084Z,3.30
2022-10-14T21:56:21.513Z,3.40
2022-10-14T21:58:48.424Z,3.30
2022-10-14T22:01:21.690Z,3.00
2022-10-14T22:04:06.042Z,3.00
2022-10-14T22:06:34.975Z,3.00
2022-10-14T22:09:04.415Z,3.30
2022-10-14T22:11:36.960Z,3.00
2022-10-14T22:14:06.012Z,2.97
2022-10-14T22:16:33.485Z,3.30
2022-10-14T22:19:03.296Z,3.00
2022-10-14T22:21:31.953Z,2.70
2022-10-14T22:23:59.233Z,2.90
2022-10-14T22:26:27.903Z,2.60
2022-10-14T22:29:15.564Z,3.00
2022-10-14T22:31:43.161Z,2.70
2022-10-14T22:34:12.592Z,2.80
2022-10-14T22:36:39.868Z,2.53
2022-10-14T22:39:12.248Z,2.47
2022-10-14T22:41:39.568Z,2.40
2022-10-14T22:44:08.377Z,2.40
2022-10-14T22:46:37.397Z,2.23
2022-10-14T22:49:04.617Z,2.23
2022-10-14T22:51:34.347Z,2.50
2022-10-14T22:54:01.178Z,1.93
2022-10-14T22:56:30.624Z,1.90
2022-10-14T22:59:08.444Z,1.37
2022-10-14T23:01:35.714Z,1.30
2022-10-14T23:04:03.831Z,1.10
2022-10-14T23:06:31.537Z,1.40
2022-10-14T23:09:01.604Z,1.10
2022-10-14T23:11:30.028Z,1.20
2022-10-14T23:13:59.098Z,1.47
2022-10-14T23:16:28.815Z,1.20
2022-10-14T23:18:55.820Z,1.20
2022-10-14T23:21:32.250Z,0.90
2022-10-14T23:24:02.549Z,0.90
2022-10-14T23:26:37.329Z,0.90
2022-10-14T23:29:07.758Z,0.90
2022-10-14T23:31:36.373Z,0.70
2022-10-14T23:34:07.324Z,0.80
2022-10-14T23:36:34.371Z,0.87
2022-10-14T23:39:01.222Z,0.70
2022-10-14T23:41:28.143Z,0.70
2022-10-14T23:43:56.820Z,0.90
2022-10-14T23:46:24.760Z,0.60
2022-10-14T23:49:06.882Z,0.60
2022-10-14T23:51:39.476Z,0.60
2022-10-14T23:54:06.602Z,0.80
2022-10-14T23:56:33.784Z,0.63
2022-10-14T23:59:00.699Z,0.60
